Danby Corners, Vermont
Current Conditions -  °F | °C
As of 1:35 AM on Tuesday 21 Oct 2014 (Local Time) from KRUT Reporting Station
Overcast Overcast  
Wind Chill: 45°   Ceiling: 9000
Heat Index: 45°   Visibility: 9mi
Dew Point: 36°   Wind: 3mph
Humidity: 71%   Direction: 160°SSE
Pressure: 29.93"   Gusts: NA
Location:  43.3492°N, 72.9643°W
Report Text: KRUT 210535Z 16003KT 9SM OVC090 07/02 A2993 RMK AO1
Loading
Personal Weather Stations






























Interactive Weather Map
Tropical Storm Tracking
New forecast layout! Learn more

10-Day Weather Forecast

Advertisements
Track Severe Weather on mobile